Rio Blanco, PR (00744)

8:32 PM AST on March 04, 2015 (GMT -0400)
Aquabella | Change Station
CLOSE
Current Station
Personal Weather Station
Location: Palmas Del Mar, HUMACAO
Elevation: 33 ft
Nearby Weather Stations

Elev 33 ft 18.09 °N, 65.80 °W | Updated 4 seconds ago

Partly Cloudy
Partly Cloudy
78.3 °F
Feels Like 80 °F
N
0.0
Wind Variable Wind from West
Gusts 6.0 mph

Today
High -- | Low -- °F
--% Chance of Precip.
Yesterday
High -- | Low -- °F
Precip. -- in
6:39 AM 6:30 PM
Full, 100% visible
Pressure 30.11 in
Visibility 10.0 miles
Clouds Few 3600 ft
Heat Index 80 °F
Dew Point 68 °F
Humidity 71%
Rainfall 0.00 in
Snow Depth Not available.
UV 0 out of 12
Pollen Not available.
Air Quality Not available.
Flu Activity Not available.
METAR TJNR 042353Z AUTO 07012G18KT 10SM FEW036 26/19 A3011 RMK AO2 SLP195 60000 T02560194 10278 20239 53012 $

More Conditions Fewer Conditions

Pressure 30.11 in
Visibility 10.0 miles
Clouds Few 3600 ft
Heat Index 80 °F
Dew Point 68 °F
Humidity 71%
Rainfall 0.00 in
Snow Depth Not available.
UV 0 out of 12
Pollen Not available.
Air Quality Not available.
Flu Activity Not available.
METAR TJNR 042353Z AUTO 07012G18KT 10SM FEW036 26/19 A3011 RMK AO2 SLP195 60000 T02560194 10278 20239 53012 $

More Conditions Fewer Conditions

10-Day Weather Forecast

Almanac

Astronomy

Mar. 04, 2015 Rise Set
Actual Time
Civil Twilight
Nautical Twilight
Astronomical Twilight
Moon
Length of Visible Light
Length of Day
Tomorrow will be .
, % of the Moon is Illuminated

Today's Extremes

State Highs State Lows

Community

WunderPhotos

Upload Photos

1,802,606 photos uploaded!

WunderBlogs® & News

Nearby

Air Quality

  Air Quality AQ Index Pollutant
Not available.

Snow Depth

Station Depth Elevation

Earthquake Activity

City Distance Mag. Time & Date
Minimum magnitude displayed is 2.5.

Coastal Water Temperatures

Place Temperature

Nearby Weather Stations